Time;durP1;ratioP1;P1;durP2;ratioP2;P2;SDS_P1;SDS_P2;PMS_P1;PMS_P2;Temp;Humidity;BMP_temperature;BMP_pressure;BME280_temperature;BME280_humidity;BME280_pressure;Samples;Min_cycle;Max_cycle;Signal;HPM_P1;HPM_P2
2022/11/23 00:00:57;;;;;;;12.27;4.43;;;;;;;;;;7397415;19;20006;-72
2022/11/23 00:03:23;;;;;;;10.23;3.78;;;;;;;;;;7396139;19;19990;-73
2022/11/23 00:05:48;;;;;;;8.68;3.60;;;;;;;;;;7397300;19;20448;-72
2022/11/23 00:08:13;;;;;;;14.55;4.03;;;;;;;;;;7394937;19;19998;-72
2022/11/23 00:10:39;;;;;;;14.23;3.40;;;;;;;;;;7397276;19;20015;-72
2022/11/23 00:13:04;;;;;;;8.77;3.13;;;;;;;;;;7399100;19;19998;-72
2022/11/23 00:15:31;;;;;;;10.32;3.05;;;;;;;;;;7396101;19;19998;-73
2022/11/23 00:17:56;;;;;;;8.13;2.92;;;;;;;;;;7395979;19;19998;-73
2022/11/23 00:20:22;;;;;;;7.95;2.90;;;;;;;;;;7397615;19;20342;-72
2022/11/23 00:22:47;;;;;;;10.65;4.30;;;;;;;;;;7397759;19;19999;-73
2022/11/23 00:25:12;;;;;;;8.80;3.20;;;;;;;;;;7395658;19;20019;-73
2022/11/23 00:27:37;;;;;;;7.47;3.00;;;;;;;;;;7393476;19;19998;-73
2022/11/23 00:30:04;;;;;;;10.82;3.20;;;;;;;;;;7396264;19;20323;-73
2022/11/23 00:32:29;;;;;;;9.55;3.13;;;;;;;;;;7396742;19;20019;-73
2022/11/23 00:34:55;;;;;;;12.23;3.13;;;;;;;;;;7395813;19;20010;-73
2022/11/23 00:37:20;;;;;;;8.68;3.30;;;;;;;;;;7395701;19;20010;-74
2022/11/23 00:39:45;;;;;;;8.65;3.22;;;;;;;;;;7395597;19;20026;-72
2022/11/23 00:42:11;;;;;;;10.80;3.42;;;;;;;;;;7396016;19;20011;-73
2022/11/23 00:44:36;;;;;;;10.25;3.35;;;;;;;;;;7394523;19;20002;-73
2022/11/23 00:47:01;;;;;;;12.18;3.63;;;;;;;;;;7396785;19;20499;-73
2022/11/23 00:49:27;;;;;;;9.00;2.92;;;;;;;;;;7394576;19;20016;-73
2022/11/23 00:51:52;;;;;;;9.43;3.78;;;;;;;;;;7393363;19;20023;-73
2022/11/23 00:54:17;;;;;;;9.88;3.35;;;;;;;;;;7396076;19;20002;-73
2022/11/23 00:56:42;;;;;;;9.98;3.10;;;;;;;;;;7396465;19;20323;-73
2022/11/23 00:59:08;;;;;;;9.60;2.97;;;;;;;;;;7393660;19;20667;-72
2022/11/23 01:01:35;;;;;;;12.05;3.35;;;;;;;;;;7392904;19;20403;-73
2022/11/23 01:04:03;;;;;;;9.60;2.97;;;;;;;;;;7395442;19;20704;-73
2022/11/23 01:06:37;;;;;;;23.17;4.90;;;;;;;;;;7394635;19;20013;-73
2022/11/23 01:09:05;;;;;;;7.05;2.78;;;;;;;;;;7396580;19;19998;-73
2022/11/23 01:11:31;;;;;;;7.40;3.05;;;;;;;;;;7392849;19;19995;-73
2022/11/23 01:13:57;;;;;;;8.77;2.95;;;;;;;;;;7393054;19;20470;-73
2022/11/23 01:16:26;;;;;;;8.55;2.90;;;;;;;;;;7393449;19;20003;-73
2022/11/23 01:19:03;;;;;;;8.70;2.65;;;;;;;;;;7396018;19;20062;-73
2022/11/23 01:21:30;;;;;;;5.90;2.60;;;;;;;;;;7393415;19;20011;-73
2022/11/23 01:23:55;;;;;;;11.13;2.70;;;;;;;;;;7393953;19;20058;-72
2022/11/23 01:26:21;;;;;;;11.45;3.08;;;;;;;;;;7394675;19;20466;-72
2022/11/23 01:28:47;;;;;;;4.63;2.50;;;;;;;;;;7395245;19;20002;-73
2022/11/23 01:31:15;;;;;;;8.93;2.90;;;;;;;;;;7391288;19;19996;-72
2022/11/23 01:33:41;;;;;;;10.10;2.90;;;;;;;;;;7393403;19;20065;-72
2022/11/23 01:36:18;;;;;;;7.40;3.13;;;;;;;;;;7394083;19;20488;-72
2022/11/23 01:38:45;;;;;;;11.20;3.15;;;;;;;;;;7392207;19;20001;-72
2022/11/23 01:41:16;;;;;;;7.45;2.90;;;;;;;;;;7391307;19;20006;-72
2022/11/23 01:43:42;;;;;;;;;;;;;;;;;;7393832;19;20030;-72
2022/11/23 01:46:08;;;;;;;9.60;2.83;;;;;;;;;;7393723;19;20276;-73
2022/11/23 01:48:39;;;;;;;9.75;3.25;;;;;;;;;;7392693;19;20014;-73
2022/11/23 01:51:09;;;;;;;11.82;3.17;;;;;;;;;;7394523;19;20017;-73
2022/11/23 01:53:36;;;;;;;13.27;3.05;;;;;;;;;;7393010;19;19999;-73
2022/11/23 01:56:05;;;;;;;9.02;2.75;;;;;;;;;;7393293;19;20002;-73
2022/11/23 01:58:33;;;;;;;6.95;2.78;;;;;;;;;;7392315;19;20120;-73
2022/11/23 02:00:59;;;;;;;16.85;3.22;;;;;;;;;;7395408;19;20026;-73
2022/11/23 02:03:28;;;;;;;9.30;2.65;;;;;;;;;;7392596;19;19991;-73
2022/11/23 02:06:00;;;;;;;8.20;3.15;;;;;;;;;;7393187;19;20304;-74
2022/11/23 02:08:26;;;;;;;7.88;2.33;;;;;;;;;;7392299;19;20464;-73
2022/11/23 02:10:52;;;;;;;6.95;2.75;;;;;;;;;;7394196;19;20066;-73
2022/11/23 02:13:17;;;;;;;10.68;3.65;;;;;;;;;;7394693;19;20558;-73
2022/11/23 02:15:43;;;;;;;6.20;2.60;;;;;;;;;;7392615;19;19997;-73
2022/11/23 02:18:15;;;;;;;10.05;3.10;;;;;;;;;;7391494;19;20058;-73
2022/11/23 02:20:42;;;;;;;10.20;2.92;;;;;;;;;;7394373;19;20490;-74
2022/11/23 02:23:31;;;;;;;6.18;2.38;;;;;;;;;;7389593;19;19995;-73
2022/11/23 02:26:05;;;;;;;8.35;2.70;;;;;;;;;;7392225;19;19998;-74
2022/11/23 02:28:44;;;;;;;10.63;2.75;;;;;;;;;;7391801;19;20010;-74
2022/11/23 02:31:09;;;;;;;8.48;2.53;;;;;;;;;;7389806;19;20078;-74
2022/11/23 02:33:38;;;;;;;9.00;2.45;;;;;;;;;;7389535;19;20013;-74
2022/11/23 02:36:33;;;;;;;9.00;2.80;;;;;;;;;;7394427;19;19998;-73
2022/11/23 02:39:02;;;;;;;5.97;2.03;;;;;;;;;;7394288;19;20290;-74
2022/11/23 02:41:34;;;;;;;9.18;2.63;;;;;;;;;;7389554;19;20006;-74
2022/11/23 02:43:59;;;;;;;9.75;2.95;;;;;;;;;;7390180;19;19998;-73
2022/11/23 02:46:25;;;;;;;10.07;3.00;;;;;;;;;;7392729;19;20011;-73
2022/11/23 02:48:50;;;;;;;11.10;2.90;;;;;;;;;;7393867;19;20010;-73
2022/11/23 02:51:15;;;;;;;9.55;2.38;;;;;;;;;;7393239;19;19987;-73
2022/11/23 02:53:41;;;;;;;7.97;2.90;;;;;;;;;;7399201;19;19999;-73
2022/11/23 02:56:06;;;;;;;8.75;2.58;;;;;;;;;;7399928;19;20002;-73
2022/11/23 02:58:31;;;;;;;8.50;2.40;;;;;;;;;;7396975;19;20311;-74
2022/11/23 03:00:57;;;;;;;11.63;2.88;;;;;;;;;;7400964;19;20054;-74
2022/11/23 03:03:22;;;;;;;7.20;2.70;;;;;;;;;;7398113;19;20543;-72
2022/11/23 03:05:47;;;;;;;8.63;2.60;;;;;;;;;;7397127;19;19998;-72
2022/11/23 03:08:13;;;;;;;10.02;2.60;;;;;;;;;;7396836;19;19990;-73
2022/11/23 03:10:38;;;;;;;10.93;2.75;;;;;;;;;;7399184;19;20444;-72
2022/11/23 03:13:03;;;;;;;8.23;2.65;;;;;;;;;;7401391;19;20055;-72
2022/11/23 03:15:29;;;;;;;8.73;2.60;;;;;;;;;;7397786;19;19991;-72
2022/11/23 03:17:55;;;;;;;7.10;2.33;;;;;;;;;;7395963;19;19999;-72
2022/11/23 03:20:21;;;;;;;7.55;2.85;;;;;;;;;;7399382;19;20557;-72
2022/11/23 03:22:46;;;;;;;8.85;2.50;;;;;;;;;;7400042;19;20022;-72
2022/11/23 03:25:11;;;;;;;7.82;2.40;;;;;;;;;;7395487;19;20448;-72
2022/11/23 03:27:38;;;;;;;7.43;2.50;;;;;;;;;;7395238;19;20008;-72
2022/11/23 03:30:06;;;;;;;11.18;2.58;;;;;;;;;;7398048;19;19998;-72
2022/11/23 03:32:31;;;;;;;13.20;2.67;;;;;;;;;;7399631;19;19995;-72
2022/11/23 03:34:57;;;;;;;12.93;2.90;;;;;;;;;;7400269;19;20015;-73
2022/11/23 03:37:24;;;;;;;8.32;2.08;;;;;;;;;;7397403;19;19998;-72
2022/11/23 03:39:49;;;;;;;9.68;2.75;;;;;;;;;;7397561;19;20027;-72
2022/11/23 03:42:14;;;;;;;10.80;2.67;;;;;;;;;;7397231;19;20029;-72
2022/11/23 03:44:40;;;;;;;7.95;2.67;;;;;;;;;;7398946;19;20025;-72
2022/11/23 03:47:05;;;;;;;9.65;2.70;;;;;;;;;;7394204;19;20001;-72
2022/11/23 03:49:30;;;;;;;10.40;2.55;;;;;;;;;;7396033;19;20010;-71
2022/11/23 03:51:55;;;;;;;11.27;2.53;;;;;;;;;;7395056;19;20001;-72
2022/11/23 03:54:21;;;;;;;6.03;2.38;;;;;;;;;;7398408;19;19991;-72
2022/11/23 03:56:46;;;;;;;10.43;2.40;;;;;;;;;;7397865;19;19995;-73
2022/11/23 03:59:11;;;;;;;7.10;2.40;;;;;;;;;;7395261;19;20444;-72
2022/11/23 04:01:37;;;;;;;9.20;2.63;;;;;;;;;;7395849;19;20106;-73
2022/11/23 04:04:02;;;;;;;11.23;2.83;;;;;;;;;;7396750;19;20002;-72
2022/11/23 04:06:27;;;;;;;11.00;3.17;;;;;;;;;;7397184;19;20652;-73
2022/11/23 04:08:53;;;;;;;13.30;2.88;;;;;;;;;;7398253;19;19994;-73
2022/11/23 04:11:18;;;;;;;12.32;2.70;;;;;;;;;;7394126;19;19995;-73
2022/11/23 04:13:43;;;;;;;10.13;2.63;;;;;;;;;;7396525;19;20010;-73
2022/11/23 04:16:09;;;;;;;9.70;2.67;;;;;;;;;;7395628;19;19991;-73
2022/11/23 04:18:34;;;;;;;7.38;2.30;;;;;;;;;;7393337;19;20003;-73
2022/11/23 04:20:59;;;;;;;12.13;2.95;;;;;;;;;;7397991;19;19991;-73
2022/11/23 04:23:25;;;;;;;7.45;2.38;;;;;;;;;;7395510;19;20054;-73
2022/11/23 04:25:50;;;;;;;8.40;2.50;;;;;;;;;;7396233;19;19995;-73
2022/11/23 04:28:15;;;;;;;7.72;2.42;;;;;;;;;;7394437;19;20007;-73
2022/11/23 04:30:41;;;;;;;11.80;3.03;;;;;;;;;;7396145;19;20001;-73
2022/11/23 04:33:06;;;;;;;7.47;2.53;;;;;;;;;;7395493;19;19994;-73
2022/11/23 04:35:33;;;;;;;8.98;2.83;;;;;;;;;;7395605;19;19999;-73
2022/11/23 04:37:58;;;;;;;13.98;3.50;;;;;;;;;;7394575;19;20010;-73
2022/11/23 04:40:24;;;;;;;14.07;3.97;;;;;;;;;;7396566;19;20042;-73
2022/11/23 04:42:49;;;;;;;11.85;3.00;;;;;;;;;;7397262;19;20013;-73
2022/11/23 04:45:14;;;;;;;5.93;2.25;;;;;;;;;;7397335;19;19995;-73
2022/11/23 04:47:40;;;;;;;8.95;2.60;;;;;;;;;;7391537;19;20456;-73
2022/11/23 04:50:05;;;;;;;13.30;2.95;;;;;;;;;;7395220;19;20010;-73
2022/11/23 04:52:31;;;;;;;9.65;3.10;;;;;;;;;;7397057;19;20390;-73
2022/11/23 04:54:56;;;;;;;9.25;3.10;;;;;;;;;;7397451;19;20005;-73
2022/11/23 04:57:21;;;;;;;8.27;3.08;;;;;;;;;;7392850;19;20483;-73
2022/11/23 04:59:47;;;;;;;10.65;3.30;;;;;;;;;;7394653;19;20011;-73
2022/11/23 05:02:12;;;;;;;8.80;2.75;;;;;;;;;;7394815;19;20019;-73
2022/11/23 05:04:37;;;;;;;14.38;2.67;;;;;;;;;;7397186;19;20113;-73
2022/11/23 05:07:03;;;;;;;11.40;3.50;;;;;;;;;;7394351;19;20015;-73
2022/11/23 05:09:28;;;;;;;7.40;2.70;;;;;;;;;;7393953;19;20003;-73
2022/11/23 05:11:53;;;;;;;8.85;2.67;;;;;;;;;;7392686;19;19999;-72
2022/11/23 05:14:18;;;;;;;9.38;3.20;;;;;;;;;;7393178;19;20445;-72
2022/11/23 05:16:44;;;;;;;10.98;2.60;;;;;;;;;;7395489;19;19999;-72
2022/11/23 05:19:09;;;;;;;10.02;3.22;;;;;;;;;;7391877;19;20002;-72
2022/11/23 05:21:35;;;;;;;8.27;3.13;;;;;;;;;;7393934;19;20130;-73
2022/11/23 05:24:00;;;;;;;10.85;3.13;;;;;;;;;;7394834;19;19999;-73
2022/11/23 05:26:25;;;;;;;8.00;2.60;;;;;;;;;;7394990;19;20535;-73
2022/11/23 05:28:51;;;;;;;9.45;2.90;;;;;;;;;;7395395;19;19999;-73
2022/11/23 05:31:16;;;;;;;8.30;2.78;;;;;;;;;;7391508;19;19998;-72
2022/11/23 05:33:41;;;;;;;10.00;3.95;;;;;;;;;;7394655;19;20001;-73
2022/11/23 05:36:07;;;;;;;22.40;11.45;;;;;;;;;;7394264;19;19995;-72
2022/11/23 05:38:32;;;;;;;19.33;7.85;;;;;;;;;;7392718;19;20037;-73
2022/11/23 05:40:57;;;;;;;9.05;3.30;;;;;;;;;;7391157;19;19999;-73
2022/11/23 05:43:23;;;;;;;9.93;3.72;;;;;;;;;;7389566;19;20001;-72
2022/11/23 05:45:48;;;;;;;14.85;7.63;;;;;;;;;;7393415;19;20001;-73
2022/11/23 05:48:14;;;;;;;8.80;3.03;;;;;;;;;;7389582;19;20003;-73
2022/11/23 05:50:39;;;;;;;9.43;3.33;;;;;;;;;;7389973;19;20332;-73
2022/11/23 05:53:04;;;;;;;8.65;3.28;;;;;;;;;;7390531;19;19998;-73
2022/11/23 05:55:30;;;;;;;8.35;2.85;;;;;;;;;;7391026;19;19990;-72
2022/11/23 05:57:55;;;;;;;8.07;2.90;;;;;;;;;;7392578;19;20005;-73
2022/11/23 06:00:21;;;;;;;14.52;4.13;;;;;;;;;;7394279;19;19994;-73
2022/11/23 06:02:46;;;;;;;9.27;3.17;;;;;;;;;;7382164;19;19998;-74
2022/11/23 06:05:11;;;;;;;7.30;2.92;;;;;;;;;;7333451;19;20006;-72
2022/11/23 06:07:37;;;;;;;4.85;2.70;;;;;;;;;;7388978;19;20342;-73
2022/11/23 06:10:04;;;;;;;8.05;2.78;;;;;;;;;;7388038;19;20081;-73
2022/11/23 06:12:30;;;;;;;7.65;2.60;;;;;;;;;;7389920;19;20011;-73
2022/11/23 06:14:55;;;;;;;7.53;2.63;;;;;;;;;;7389716;19;20361;-73
2022/11/23 06:17:21;;;;;;;9.05;2.60;;;;;;;;;;7387625;19;20614;-73
2022/11/23 06:19:46;;;;;;;6.32;2.55;;;;;;;;;;7388006;19;20005;-74
2022/11/23 06:22:12;;;;;;;10.15;2.95;;;;;;;;;;7389963;19;19995;-73
2022/11/23 06:24:37;;;;;;;11.02;2.88;;;;;;;;;;7390009;19;20407;-73
2022/11/23 06:27:03;;;;;;;5.45;2.20;;;;;;;;;;7388724;19;19991;-72
2022/11/23 06:29:28;;;;;;;9.88;2.92;;;;;;;;;;7387538;19;20002;-73
2022/11/23 06:31:53;;;;;;;10.57;2.83;;;;;;;;;;7388778;19;20437;-73
2022/11/23 06:34:19;;;;;;;8.82;2.30;;;;;;;;;;7388775;19;20025;-73
2022/11/23 06:36:44;;;;;;;11.32;2.72;;;;;;;;;;7384331;19;20003;-73
2022/11/23 06:39:10;;;;;;;6.40;2.90;;;;;;;;;;7389582;19;20058;-74
2022/11/23 06:41:35;;;;;;;6.03;2.72;;;;;;;;;;7389975;19;20335;-74
2022/11/23 06:44:01;;;;;;;11.27;2.95;;;;;;;;;;7389444;19;20118;-74
2022/11/23 06:46:29;;;;;;;8.20;2.50;;;;;;;;;;7385419;19;19991;-74
2022/11/23 06:48:55;;;;;;;6.72;2.58;;;;;;;;;;7387734;19;19995;-74
2022/11/23 06:51:20;;;;;;;8.55;2.88;;;;;;;;;;7388879;19;20019;-73
2022/11/23 06:53:45;;;;;;;5.40;2.28;;;;;;;;;;7386712;19;19998;-72
2022/11/23 06:56:11;;;;;;;8.55;2.63;;;;;;;;;;7389875;19;19990;-74
2022/11/23 06:58:36;;;;;;;11.20;3.00;;;;;;;;;;7383927;19;20161;-72
2022/11/23 07:01:05;;;;;;;9.65;2.60;;;;;;;;;;7389494;19;20428;-71
2022/11/23 07:03:30;;;;;;;11.30;2.92;;;;;;;;;;7381890;19;20005;-71
2022/11/23 07:05:56;;;;;;;6.78;2.53;;;;;;;;;;7380695;19;20078;-72
2022/11/23 07:08:21;;;;;;;4.80;2.33;;;;;;;;;;7379808;19;19994;-72
2022/11/23 07:10:47;;;;;;;11.20;2.65;;;;;;;;;;7384050;19;20114;-72
2022/11/23 07:13:13;;;;;;;11.25;3.28;;;;;;;;;;7382585;19;20018;-72
2022/11/23 07:15:39;;;;;;;5.38;2.35;;;;;;;;;;7381376;19;20027;-73
2022/11/23 07:18:05;;;;;;;10.98;3.00;;;;;;;;;;7380603;19;20001;-72
2022/11/23 07:20:31;;;;;;;7.70;2.40;;;;;;;;;;7388549;19;20037;-73
2022/11/23 07:23:01;;;;;;;6.28;2.63;;;;;;;;;;7389828;19;19995;-72
2022/11/23 07:25:28;;;;;;;3.58;1.90;;;;;;;;;;7387098;19;20002;-73
2022/11/23 07:27:56;;;;;;;11.55;2.28;;;;;;;;;;7387218;19;20003;-73
2022/11/23 07:30:21;;;;;;;8.75;2.20;;;;;;;;;;7388310;19;19995;-74
2022/11/23 07:32:46;;;;;;;4.63;2.10;;;;;;;;;;7389628;19;19999;-72
2022/11/23 07:35:12;;;;;;;6.40;2.20;;;;;;;;;;7388002;19;19997;-72
2022/11/23 07:37:37;;;;;;;10.95;3.15;;;;;;;;;;7388931;19;19994;-71
2022/11/23 07:40:03;;;;;;;9.10;3.08;;;;;;;;;;7394518;19;20434;-71
2022/11/23 07:42:28;;;;;;;7.95;2.28;;;;;;;;;;7395541;19;20023;-72
2022/11/23 07:44:54;;;;;;;11.10;3.13;;;;;;;;;;7396201;19;19999;-72
2022/11/23 07:47:19;;;;;;;7.88;2.63;;;;;;;;;;7392339;19;19999;-72
2022/11/23 07:49:44;;;;;;;9.30;2.63;;;;;;;;;;7392745;19;20011;-72
2022/11/23 07:52:09;;;;;;;8.50;2.22;;;;;;;;;;7392770;19;20010;-71
2022/11/23 07:54:37;;;;;;;8.35;2.65;;;;;;;;;;7393116;19;20002;-73
2022/11/23 07:57:03;;;;;;;7.90;2.45;;;;;;;;;;7389054;19;20416;-72
2022/11/23 07:59:28;;;;;;;7.32;2.83;;;;;;;;;;7391452;19;20009;-72
2022/11/23 08:01:54;;;;;;;11.32;3.33;;;;;;;;;;7392300;19;20006;-72
2022/11/23 08:04:19;;;;;;;11.15;2.92;;;;;;;;;;7395192;19;20007;-72
2022/11/23 08:06:44;;;;;;;10.65;2.80;;;;;;;;;;7392917;19;20003;-71
2022/11/23 08:09:10;;;;;;;8.70;2.70;;;;;;;;;;7392561;19;20344;-73
2022/11/23 08:11:35;;;;;;;9.25;2.92;;;;;;;;;;7390068;19;20331;-73
2022/11/23 08:14:00;;;;;;;6.57;2.65;;;;;;;;;;7394857;19;20010;-72
2022/11/23 08:16:26;;;;;;;11.93;2.90;;;;;;;;;;7394202;19;19998;-73
2022/11/23 08:18:51;;;;;;;7.40;2.40;;;;;;;;;;7395379;19;20089;-73
2022/11/23 08:21:17;;;;;;;10.52;2.80;;;;;;;;;;7392219;19;20019;-73
2022/11/23 08:23:42;;;;;;;7.28;2.70;;;;;;;;;;7392691;19;20003;-73
2022/11/23 08:26:07;;;;;;;8.07;2.50;;;;;;;;;;7393275;19;20003;-73
2022/11/23 08:28:32;;;;;;;12.82;3.15;;;;;;;;;;7389483;19;20091;-73
2022/11/23 08:30:58;;;;;;;9.65;2.80;;;;;;;;;;7393386;19;20005;-73
2022/11/23 08:33:23;;;;;;;8.77;2.40;;;;;;;;;;7391879;19;20108;-73
2022/11/23 08:35:48;;;;;;;5.60;2.40;;;;;;;;;;7389883;19;20032;-73
2022/11/23 08:38:14;;;;;;;6.70;2.28;;;;;;;;;;7387757;19;20672;-73
2022/11/23 08:40:39;;;;;;;7.20;2.58;;;;;;;;;;7391295;19;20002;-73
2022/11/23 08:43:05;;;;;;;7.22;2.10;;;;;;;;;;7389975;19;20033;-71
2022/11/23 08:45:31;;;;;;;7.68;2.40;;;;;;;;;;7391761;19;20070;-72
2022/11/23 08:48:01;;;;;;;6.47;2.30;;;;;;;;;;7391058;19;20032;-72
2022/11/23 08:50:28;;;;;;;7.40;2.38;;;;;;;;;;7393078;19;20003;-72
2022/11/23 08:52:57;;;;;;;7.15;2.42;;;;;;;;;;7394076;19;20462;-72
2022/11/23 08:55:23;;;;;;;10.90;2.38;;;;;;;;;;7389437;19;20037;-71
2022/11/23 08:57:49;;;;;;;9.25;2.40;;;;;;;;;;7390518;19;20002;-71
2022/11/23 09:00:15;;;;;;;7.57;2.42;;;;;;;;;;7392911;19;20009;-71
2022/11/23 09:02:40;;;;;;;7.22;2.50;;;;;;;;;;7393388;19;19999;-72
2022/11/23 09:05:06;;;;;;;9.00;2.30;;;;;;;;;;7389482;19;20096;-72
2022/11/23 09:07:31;;;;;;;10.50;2.50;;;;;;;;;;7389630;19;20038;-71
2022/11/23 09:09:57;;;;;;;10.05;2.22;;;;;;;;;;7391783;19;20065;-72
2022/11/23 09:12:22;;;;;;;7.35;2.58;;;;;;;;;;7393200;19;20005;-72
2022/11/23 09:14:47;;;;;;;11.02;2.45;;;;;;;;;;7393375;19;20362;-72
2022/11/23 09:17:13;;;;;;;8.35;2.28;;;;;;;;;;7387702;19;20058;-72
2022/11/23 09:19:38;;;;;;;7.40;2.20;;;;;;;;;;7391345;19;20015;-72
2022/11/23 09:22:03;;;;;;;6.53;2.50;;;;;;;;;;7390251;19;20003;-72
2022/11/23 09:24:29;;;;;;;5.32;2.20;;;;;;;;;;7386272;19;20001;-73
2022/11/23 09:26:55;;;;;;;6.82;2.13;;;;;;;;;;7386086;19;20003;-72
2022/11/23 09:29:20;;;;;;;8.30;2.42;;;;;;;;;;7390866;19;20384;-72
2022/11/23 09:31:45;;;;;;;6.10;2.72;;;;;;;;;;7379629;19;20022;-72
2022/11/23 09:34:12;;;;;;;6.57;2.08;;;;;;;;;;7390589;19;20002;-72
2022/11/23 09:36:38;;;;;;;8.52;2.38;;;;;;;;;;7388367;19;20416;-71
2022/11/23 09:39:03;;;;;;;6.47;2.22;;;;;;;;;;7390097;19;20007;-71
2022/11/23 09:41:52;;;;;;;6.82;2.53;;;;;;;;;;7392615;19;20033;-71
2022/11/23 09:44:44;;;;;;;8.02;2.40;;;;;;;;;;7388841;19;20007;-71
2022/11/23 09:47:27;;;;;;;5.57;2.53;;;;;;;;;;7389532;19;20122;-72
2022/11/23 09:50:10;;;;;;;8.20;2.00;;;;;;;;;;7387634;19;20413;-71
2022/11/23 09:52:41;;;;;;;10.43;2.30;;;;;;;;;;7389958;19;20006;-72
2022/11/23 09:55:20;;;;;;;7.13;2.20;;;;;;;;;;7391472;19;20003;-71
2022/11/23 09:57:47;;;;;;;7.68;2.30;;;;;;;;;;7386090;19;20482;-71
2022/11/23 10:00:20;;;;;;;8.30;2.60;;;;;;;;;;7386468;19;20015;-72
2022/11/23 10:02:46;;;;;;;8.40;2.50;;;;;;;;;;7389890;19;20015;-71
2022/11/23 10:05:22;;;;;;;6.97;2.15;;;;;;;;;;7391431;19;20285;-72
2022/11/23 10:07:53;;;;;;;10.68;2.63;;;;;;;;;;7387151;19;20009;-72
2022/11/23 10:10:38;;;;;;;7.03;2.92;;;;;;;;;;7389299;19;20556;-72
2022/11/23 10:13:15;;;;;;;8.05;2.42;;;;;;;;;;7389975;19;20002;-72
2022/11/23 10:15:49;;;;;;;9.35;2.28;;;;;;;;;;7387537;19;20002;-72
2022/11/23 10:18:24;;;;;;;8.70;2.75;;;;;;;;;;7387449;19;20002;-72
2022/11/23 10:21:01;;;;;;;11.75;2.38;;;;;;;;;;7390178;19;20007;-72
2022/11/23 10:23:53;;;;;;;8.38;2.25;;;;;;;;;;7391846;19;20014;-72
2022/11/23 10:26:25;;;;;;;9.13;2.60;;;;;;;;;;7390223;19;20506;-72
2022/11/23 10:28:50;;;;;;;5.75;2.65;;;;;;;;;;7388187;19;19999;-72
2022/11/23 10:31:18;;;;;;;13.32;2.80;;;;;;;;;;7389011;19;19999;-72
2022/11/23 10:33:53;;;;;;;6.53;2.30;;;;;;;;;;7387407;19;20006;-72
2022/11/23 10:36:18;;;;;;;7.70;2.22;;;;;;;;;;7387661;19;20002;-72
2022/11/23 10:38:48;;;;;;;5.82;1.92;;;;;;;;;;7390500;19;20025;-72
2022/11/23 10:41:15;;;;;;;6.20;2.10;;;;;;;;;;7389667;19;20389;-72
2022/11/23 10:44:22;;;;;;;6.97;2.33;;;;;;;;;;7385686;19;20378;-72
2022/11/23 10:46:47;;;;;;;6.32;1.92;;;;;;;;;;7386696;19;20009;-72
2022/11/23 10:49:19;;;;;;;9.10;2.22;;;;;;;;;;7388974;19;20384;-72
2022/11/23 10:51:53;;;;;;;10.10;2.08;;;;;;;;;;7385306;19;20365;-72
2022/11/23 10:54:36;;;;;;;8.20;2.25;;;;;;;;;;7390516;19;20031;-73
2022/11/23 10:57:29;;;;;;;7.75;2.17;;;;;;;;;;7387665;19;20448;-71
2022/11/23 11:00:03;;;;;;;6.63;2.00;;;;;;;;;;7388917;19;19999;-72
2022/11/23 11:02:38;;;;;;;7.97;2.00;;;;;;;;;;7389116;19;19995;-71
2022/11/23 11:05:36;;;;;;;7.88;1.90;;;;;;;;;;7387247;19;19999;-71
2022/11/23 11:08:15;;;;;;;5.00;1.65;;;;;;;;;;7381513;19;20363;-71
2022/11/23 11:11:05;;;;;;;8.48;2.28;;;;;;;;;;7383282;19;20026;-71
2022/11/23 11:13:38;;;;;;;6.35;1.70;;;;;;;;;;7391115;19;20468;-71
2022/11/23 11:16:15;;;;;;;8.80;2.15;;;;;;;;;;7395270;19;20037;-71
2022/11/23 11:18:40;;;;;;;10.38;2.38;;;;;;;;;;7390143;19;19999;-71
2022/11/23 11:21:20;;;;;;;9.23;2.33;;;;;;;;;;7393806;19;20423;-71
2022/11/23 11:24:00;;;;;;;6.65;2.17;;;;;;;;;;7394837;19;20145;-70
2022/11/23 11:26:27;;;;;;;8.68;1.92;;;;;;;;;;7391215;19;20001;-71
2022/11/23 11:28:56;;;;;;;7.32;2.30;;;;;;;;;;7396517;19;20392;-71
2022/11/23 11:31:40;;;;;;;10.32;2.20;;;;;;;;;;7394083;19;20010;-71
2022/11/23 11:34:15;;;;;;;5.32;1.83;;;;;;;;;;7396015;19;20415;-71
2022/11/23 11:36:49;;;;;;;8.15;2.33;;;;;;;;;;7392891;19;20039;-71
2022/11/23 11:39:23;;;;;;;7.45;1.77;;;;;;;;;;7395739;19;20526;-73
2022/11/23 11:41:51;;;;;;;7.38;2.00;;;;;;;;;;7395605;19;20007;-72
2022/11/23 11:44:21;;;;;;;6.13;1.83;;;;;;;;;;7397100;19;20005;-73
2022/11/23 11:46:53;;;;;;;10.30;2.05;;;;;;;;;;7390404;19;20119;-73
2022/11/23 11:49:25;;;;;;;8.98;2.30;;;;;;;;;;7393977;19;19999;-73
2022/11/23 11:52:10;;;;;;;6.15;1.95;;;;;;;;;;7393507;19;20021;-73
2022/11/23 11:54:50;;;;;;;7.63;2.08;;;;;;;;;;7393199;19;20016;-73
2022/11/23 11:57:24;;;;;;;5.22;1.60;;;;;;;;;;7391149;19;20023;-74
2022/11/23 11:59:56;;;;;;;7.72;2.00;;;;;;;;;;7394685;19;20023;-73
2022/11/23 12:02:33;;;;;;;4.80;1.80;;;;;;;;;;7396418;19;20020;-74
2022/11/23 12:05:25;;;;;;;6.97;1.90;;;;;;;;;;7392723;19;20002;-74
2022/11/23 12:08:05;;;;;;;6.47;2.17;;;;;;;;;;7388117;19;20003;-74
2022/11/23 12:10:58;;;;;;;8.90;1.58;;;;;;;;;;7393869;19;20130;-74
2022/11/23 12:13:33;;;;;;;4.57;1.55;;;;;;;;;;7391653;19;20002;-73
2022/11/23 12:16:35;;;;;;;8.63;2.00;;;;;;;;;;7394522;19;20125;-74
2022/11/23 12:19:12;;;;;;;7.18;1.80;;;;;;;;;;7392650;19;20014;-74
2022/11/23 12:21:46;;;;;;;6.32;2.08;;;;;;;;;;7394035;19;20442;-73
2022/11/23 12:24:41;;;;;;;5.35;1.67;;;;;;;;;;7394395;19;20035;-73
2022/11/23 12:27:22;;;;;;;6.47;1.90;;;;;;;;;;7390880;19;20007;-73
2022/11/23 12:30:02;;;;;;;5.45;1.50;;;;;;;;;;7393946;19;20062;-73
2022/11/23 12:32:55;;;;;;;7.63;2.00;;;;;;;;;;7389323;19;20003;-74
2022/11/23 12:35:42;;;;;;;4.25;1.40;;;;;;;;;;7392757;19;20507;-73
2022/11/23 12:38:43;;;;;;;12.85;1.85;;;;;;;;;;7391683;19;20003;-73
2022/11/23 12:41:41;;;;;;;3.30;1.50;;;;;;;;;;7388147;19;20547;-73
2022/11/23 12:44:48;;;;;;;6.72;1.73;;;;;;;;;;7393352;19;20378;-73
2022/11/23 12:47:31;;;;;;;6.75;1.63;;;;;;;;;;7391750;19;20011;-73
2022/11/23 12:50:27;;;;;;;9.85;1.92;;;;;;;;;;7393533;19;20042;-74
2022/11/23 12:53:07;;;;;;;7.18;1.30;;;;;;;;;;7391424;19;19998;-73
2022/11/23 12:55:48;;;;;;;6.93;1.65;;;;;;;;;;7393377;19;20105;-72
2022/11/23 12:58:18;;;;;;;;;;;;;;;;;;7392038;19;20002;-73
2022/11/23 13:00:50;;;;;;;10.07;2.00;;;;;;;;;;7390031;19;20277;-73
2022/11/23 13:03:39;;;;;;;6.10;2.08;;;;;;;;;;7391996;19;20320;-73
2022/11/23 13:06:23;;;;;;;6.60;1.77;;;;;;;;;;7388923;19;20488;-73
2022/11/23 13:09:32;;;;;;;8.25;2.05;;;;;;;;;;7389262;19;20414;-73
2022/11/23 13:12:03;;;;;;;7.75;1.80;;;;;;;;;;7389105;19;20012;-74
2022/11/23 13:14:43;;;;;;;5.00;1.52;;;;;;;;;;7389606;19;20017;-77
2022/11/23 13:17:41;;;;;;;6.45;2.05;;;;;;;;;;7390548;19;20039;-80
2022/11/23 13:20:29;;;;;;;5.90;1.60;;;;;;;;;;7391978;19;20008;-77
2022/11/23 13:22:57;;;;;;;12.77;1.92;;;;;;;;;;7392235;19;20002;-78
2022/11/23 13:25:28;;;;;;;8.88;2.03;;;;;;;;;;7392462;19;20002;-79
2022/11/23 13:27:59;;;;;;;4.57;1.58;;;;;;;;;;7390034;19;20005;-77
2022/11/23 13:30:34;;;;;;;16.98;2.72;;;;;;;;;;7393259;19;20811;-79
2022/11/23 13:33:22;;;;;;;3.42;1.50;;;;;;;;;;7392222;19;20029;-78
2022/11/23 13:35:55;;;;;;;4.93;1.48;;;;;;;;;;7388975;19;20452;-78
2022/11/23 13:38:25;;;;;;;8.25;1.75;;;;;;;;;;7391242;19;20374;-75
2022/11/23 13:40:51;;;;;;;9.00;1.57;;;;;;;;;;7391548;19;20058;-80
2022/11/23 13:43:21;;;;;;;7.40;1.83;;;;;;;;;;7392112;19;20272;-77
2022/11/23 13:46:29;;;;;;;11.82;2.03;;;;;;;;;;7393594;19;20002;-80
2022/11/23 13:48:58;;;;;;;7.18;1.52;;;;;;;;;;7391916;19;20451;-79
2022/11/23 13:51:29;;;;;;;9.07;1.50;;;;;;;;;;7393058;19;20044;-79
2022/11/23 13:54:04;;;;;;;7.05;2.28;;;;;;;;;;7393037;19;20028;-78
2022/11/23 13:56:39;;;;;;;5.25;1.75;;;;;;;;;;7393300;19;20007;-81
2022/11/23 13:59:23;;;;;;;7.15;1.65;;;;;;;;;;7391790;19;20479;-81
2022/11/23 14:02:22;;;;;;;3.25;1.50;;;;;;;;;;7393374;19;19998;-79
2022/11/23 14:04:48;;;;;;;3.88;1.15;;;;;;;;;;7389088;19;20520;-75
2022/11/23 14:07:28;;;;;;;10.30;1.63;;;;;;;;;;7389240;19;20020;-77
2022/11/23 14:09:59;;;;;;;6.60;1.42;;;;;;;;;;7390992;19;20087;-75
2022/11/23 14:12:30;;;;;;;6.35;1.50;;;;;;;;;;7387895;19;20002;-76
2022/11/23 14:14:55;;;;;;;;;;;;;;;;;;7387612;19;20024;-77
2022/11/23 14:17:44;;;;;;;6.13;1.67;;;;;;;;;;7389256;19;20345;-73
2022/11/23 14:20:10;;;;;;;6.35;1.27;;;;;;;;;;7387777;19;20002;-75
2022/11/23 14:22:41;;;;;;;8.57;1.70;;;;;;;;;;7387410;19;20032;-74
2022/11/23 14:25:15;;;;;;;;;;;;;;;;;;7388565;19;20521;-73
2022/11/23 14:28:02;;;;;;;6.22;1.40;;;;;;;;;;7387626;19;19923;-73
2022/11/23 14:30:57;;;;;;;4.07;1.25;;;;;;;;;;7388651;19;19997;-74
2022/11/23 14:33:41;;;;;;;5.72;1.83;;;;;;;;;;7390600;19;20011;-75
2022/11/23 14:36:44;;;;;;;3.72;1.45;;;;;;;;;;7390202;19;20103;-75
2022/11/23 14:39:36;;;;;;;5.22;1.60;;;;;;;;;;7387856;19;20080;-75
2022/11/23 14:42:10;;;;;;;13.32;1.60;;;;;;;;;;7390718;19;20078;-73
2022/11/23 14:44:35;;;;;;;3.75;1.45;;;;;;;;;;7390463;19;20150;-74
2022/11/23 14:47:05;;;;;;;8.57;1.90;;;;;;;;;;7391513;19;20198;-74
2022/11/23 14:49:31;;;;;;;10.77;2.00;;;;;;;;;;7397622;19;20035;-77
2022/11/23 14:51:57;;;;;;;8.80;1.80;;;;;;;;;;7395525;19;20078;-75
2022/11/23 14:54:24;;;;;;;6.13;1.55;;;;;;;;;;7394579;19;20017;-75
2022/11/23 14:56:52;;;;;;;7.00;1.70;;;;;;;;;;7394666;19;20010;-76
2022/11/23 14:59:27;;;;;;;6.50;1.52;;;;;;;;;;7397500;19;20010;-76